Time;durP1;ratioP1;P1;durP2;ratioP2;P2;SDS_P1;SDS_P2;PMS_P1;PMS_P2;Temp;Humidity;BMP_temperature;BMP_pressure;BME280_temperature;BME280_humidity;BME280_pressure;Samples;Min_cycle;Max_cycle;Signal;HPM_P1;HPM_P2
2022/09/21 00:01:49;;;;;;;8.13;4.88;;;8.20;99.90;;;;;;5043204;28;20222;-77
2022/09/21 00:04:15;;;;;;;6.40;4.93;;;8.20;99.90;;;;;;5034869;28;20236;-77
2022/09/21 00:06:42;;;;;;;5.03;4.63;;;8.20;99.90;;;;;;5045194;28;20197;-78
2022/09/21 00:09:09;;;;;;;5.90;5.13;;;8.10;99.90;;;;;;5054659;28;20209;-79
2022/09/21 00:11:36;;;;;;;8.07;5.22;;;8.10;99.90;;;;;;5045638;28;20230;-77
2022/09/21 00:14:06;;;;;;;5.70;5.05;;;8.00;99.90;;;;;;5034920;28;20218;-77
2022/09/21 00:16:33;;;;;;;8.02;5.30;;;8.00;99.90;;;;;;5042485;28;20201;-79
2022/09/21 00:19:01;;;;;;;5.18;4.68;;;8.00;99.90;;;;;;5053927;28;20233;-79
2022/09/21 00:21:29;;;;;;;6.57;5.75;;;8.00;99.90;;;;;;5053282;28;20221;-79
2022/09/21 00:23:56;;;;;;;5.65;5.15;;;8.00;99.90;;;;;;5041230;28;20229;-79
2022/09/21 00:26:25;;;;;;;5.47;4.97;;;8.00;99.90;;;;;;5036323;28;20563;-79
2022/09/21 00:28:54;;;;;;;5.65;5.15;;;7.90;99.90;;;;;;5045090;28;20199;-79
2022/09/21 00:31:21;;;;;;;4.93;4.53;;;7.90;99.90;;;;;;5033888;28;20234;-79
2022/09/21 00:33:49;;;;;;;9.43;6.25;;;7.90;99.90;;;;;;5034148;28;20202;-79
2022/09/21 00:36:20;;;;;;;5.97;5.20;;;7.80;99.90;;;;;;5039884;28;20731;-78
2022/09/21 00:38:50;;;;;;;5.07;4.68;;;7.80;99.90;;;;;;5054188;28;20221;-78
2022/09/21 00:41:17;;;;;;;5.88;5.15;;;7.80;99.90;;;;;;5048456;28;20222;-78
2022/09/21 00:43:48;;;;;;;7.88;5.13;;;7.80;99.90;;;;;;5034358;28;20702;-77
2022/09/21 00:46:22;;;;;;;5.25;4.47;;;7.80;99.90;;;;;;5038905;28;20201;-78
2022/09/21 00:48:49;;;;;;;5.38;4.88;;;7.70;99.90;;;;;;5054054;28;20209;-79
2022/09/21 00:51:17;;;;;;;6.38;5.15;;;7.70;99.90;;;;;;5050172;28;20233;-79
2022/09/21 00:53:44;;;;;;;6.32;5.30;;;7.70;99.90;;;;;;5035191;28;20631;-78
2022/09/21 00:56:14;;;;;;;4.75;4.35;;;7.70;99.90;;;;;;5034430;28;20209;-78
2022/09/21 00:58:46;;;;;;;5.80;5.28;;;7.60;99.90;;;;;;5033918;28;20207;-76
2022/09/21 01:01:15;;;;;;;5.18;4.63;;;7.60;99.90;;;;;;5036277;28;20228;-77
2022/09/21 01:03:43;;;;;;;6.32;5.72;;;7.60;99.90;;;;;;5053968;28;20630;-76
2022/09/21 01:06:10;;;;;;;5.90;5.40;;;7.60;99.90;;;;;;5040615;28;20203;-76
2022/09/21 01:08:39;;;;;;;5.20;4.70;;;7.60;99.90;;;;;;5033556;28;20229;-78
2022/09/21 01:11:29;;;;;;;5.13;4.72;;;7.50;99.90;;;;;;5044723;28;20283;-77
2022/09/21 01:14:15;;;;;;;6.00;4.57;;;7.50;99.90;;;;;;5050160;28;20202;-80
2022/09/21 01:16:48;;;;;;;7.93;5.25;;;7.50;99.90;;;;;;5037704;28;20193;-79
2022/09/21 01:19:49;;;;;;;5.53;4.93;;;7.40;99.90;;;;;;5052431;28;20205;-79
2022/09/21 01:22:27;;;;;;;5.57;4.30;;;7.40;99.90;;;;;;5051450;28;20238;-79
2022/09/21 01:25:09;;;;;;;6.93;5.65;;;7.40;99.90;;;;;;5053189;28;20209;-79
2022/09/21 01:27:48;;;;;;;9.63;5.65;;;7.40;99.90;;;;;;5038871;28;20690;-79
2022/09/21 01:30:18;;;;;;;6.10;4.95;;;7.40;99.90;;;;;;5032891;28;20229;-80
2022/09/21 01:32:50;;;;;;;6.57;4.85;;;7.30;99.90;;;;;;5047548;28;20260;-78
2022/09/21 01:35:20;;;;;;;9.80;5.28;;;7.30;99.90;;;;;;5053732;28;20591;-78
2022/09/21 01:37:52;;;;;;;7.30;4.35;;;7.30;99.90;;;;;;5038639;28;20202;-78
2022/09/21 01:40:22;;;;;;;5.68;5.18;;;7.30;99.90;;;;;;5033295;28;20210;-79
2022/09/21 01:42:52;;;;;;;4.72;4.35;;;7.30;99.90;;;;;;5046609;28;20205;-78
2022/09/21 01:45:26;;;;;;;5.13;4.72;;;7.30;99.90;;;;;;5040509;28;20210;-77
2022/09/21 01:47:55;;;;;;;5.18;4.25;;;7.20;99.90;;;;;;5052286;28;20693;-76
2022/09/21 01:50:22;;;;;;;6.28;5.20;;;7.20;99.90;;;;;;5050238;28;20221;-76
2022/09/21 01:52:54;;;;;;;6.25;4.85;;;7.20;99.90;;;;;;5033068;28;20281;-76
2022/09/21 01:55:27;;;;;;;4.90;4.30;;;7.20;99.90;;;;;;5035568;28;20238;-81
2022/09/21 01:57:58;;;;;;;5.15;4.40;;;7.20;99.90;;;;;;5052831;28;20260;-81
2022/09/21 02:00:27;;;;;;;5.82;5.20;;;7.20;99.90;;;;;;5036131;28;20726;-82
2022/09/21 02:02:58;;;;;;;5.95;4.75;;;7.10;99.90;;;;;;5033226;28;20628;-83
2022/09/21 02:05:27;;;;;;;5.22;4.50;;;7.10;99.90;;;;;;5049189;28;20240;-77
2022/09/21 02:07:54;;;;;;;5.30;4.40;;;7.10;99.90;;;;;;5052681;28;20293;-77
2022/09/21 02:10:27;;;;;;;4.70;4.30;;;7.10;99.90;;;;;;5037493;28;20598;-77
2022/09/21 02:12:59;;;;;;;5.72;5.13;;;7.10;99.90;;;;;;5038182;28;20197;-76
2022/09/21 02:15:37;;;;;;;6.28;4.63;;;7.00;99.90;;;;;;5052451;28;20205;-76
2022/09/21 02:18:13;;;;;;;6.40;4.53;;;7.00;99.90;;;;;;5045913;28;20667;-76
2022/09/21 02:20:47;;;;;;;4.82;4.43;;;7.00;99.90;;;;;;5036398;28;20210;-76
2022/09/21 02:23:22;;;;;;;4.75;4.35;;;7.00;99.90;;;;;;5034089;28;20209;-80
2022/09/21 02:25:56;;;;;;;4.45;4.15;;;7.00;99.90;;;;;;5043155;28;20204;-79
2022/09/21 02:28:34;;;;;;;7.55;5.00;;;7.00;99.90;;;;;;5057495;28;20216;-80
2022/09/21 02:31:12;;;;;;;5.05;4.40;;;6.90;99.90;;;;;;5051188;28;20225;-80
2022/09/21 02:33:46;;;;;;;4.90;4.50;;;6.90;99.90;;;;;;5037730;28;20237;-80
2022/09/21 02:36:20;;;;;;;5.70;4.32;;;6.90;99.90;;;;;;5051501;28;20198;-80
2022/09/21 02:38:52;;;;;;;5.45;3.78;;;6.90;99.90;;;;;;5057980;28;20209;-80
2022/09/21 02:41:23;;;;;;;5.00;3.70;;;6.90;99.90;;;;;;5039009;28;20237;-78
2022/09/21 02:44:00;;;;;;;5.32;4.93;;;6.90;99.90;;;;;;5038293;28;20213;-79
2022/09/21 02:46:32;;;;;;;5.88;4.30;;;6.80;99.90;;;;;;5056648;28;20271;-80
2022/09/21 02:49:04;;;;;;;6.88;4.47;;;6.80;99.90;;;;;;5058048;28;20202;-79
2022/09/21 02:51:35;;;;;;;4.40;4.00;;;6.80;99.90;;;;;;5052399;28;20225;-80
2022/09/21 02:54:06;;;;;;;8.02;6.05;;;6.80;99.90;;;;;;5058501;28;20666;-79
2022/09/21 02:56:34;;;;;;;4.80;3.88;;;6.80;99.90;;;;;;5038927;28;20624;-79
2022/09/21 02:59:04;;;;;;;6.55;5.38;;;6.70;99.90;;;;;;5037980;28;20206;-79
2022/09/21 03:01:33;;;;;;;5.22;4.70;;;6.70;99.90;;;;;;5060367;28;20224;-79
2022/09/21 03:04:01;;;;;;;5.78;4.95;;;6.70;99.90;;;;;;5057457;28;20256;-80
2022/09/21 03:06:27;;;;;;;5.40;4.88;;;6.70;99.90;;;;;;5053031;28;20228;-80
2022/09/21 03:08:56;;;;;;;4.65;4.25;;;6.70;99.90;;;;;;5058673;28;20205;-79
2022/09/21 03:11:23;;;;;;;6.35;5.75;;;6.70;99.90;;;;;;5042126;28;20244;-80
2022/09/21 03:13:50;;;;;;;6.35;5.32;;;6.70;99.90;;;;;;5043257;28;20635;-80
2022/09/21 03:16:17;;;;;;;6.32;4.72;;;6.70;99.90;;;;;;5062242;28;20202;-80
2022/09/21 03:18:45;;;;;;;5.80;5.22;;;6.70;99.90;;;;;;5049363;28;20198;-78
2022/09/21 03:21:12;;;;;;;7.60;7.00;;;6.60;99.90;;;;;;5041683;28;20234;-79
2022/09/21 03:23:39;;;;;;;7.72;6.40;;;6.60;99.90;;;;;;5051129;28;20206;-80
2022/09/21 03:26:07;;;;;;;10.18;7.70;;;6.60;99.90;;;;;;5061413;28;20217;-80
2022/09/21 03:28:34;;;;;;;9.57;8.75;;;6.60;99.90;;;;;;5052530;28;20210;-80
2022/09/21 03:31:00;;;;;;;11.35;8.02;;;6.60;99.90;;;;;;5041011;28;20245;-80
2022/09/21 03:33:27;;;;;;;6.20;5.43;;;6.60;99.90;;;;;;5059545;28;20201;-80
2022/09/21 03:35:55;;;;;;;7.07;6.30;;;6.60;99.90;;;;;;5058301;28;20193;-80
2022/09/21 03:38:23;;;;;;;6.53;5.90;;;6.60;99.90;;;;;;5060803;28;20580;-79
2022/09/21 03:40:51;;;;;;;8.90;5.78;;;6.60;99.90;;;;;;5054197;28;20230;-80
2022/09/21 03:43:18;;;;;;;5.35;4.95;;;6.60;99.90;;;;;;5041478;28;20656;-80
2022/09/21 03:45:45;;;;;;;7.43;5.70;;;6.50;99.90;;;;;;5046021;28;20205;-80
2022/09/21 03:48:14;;;;;;;9.57;6.47;;;6.50;99.90;;;;;;5060726;28;20228;-79
2022/09/21 03:50:41;;;;;;;7.78;6.53;;;6.50;99.90;;;;;;5060131;28;20208;-80
2022/09/21 03:53:10;;;;;;;9.68;7.05;;;6.50;99.90;;;;;;5061012;28;20307;-80
2022/09/21 03:55:37;;;;;;;6.93;6.18;;;6.50;99.90;;;;;;5057257;28;20210;-80
2022/09/21 03:58:03;;;;;;;9.52;7.20;;;6.50;99.90;;;;;;5040357;28;20213;-80
2022/09/21 04:00:31;;;;;;;9.80;6.85;;;6.40;99.90;;;;;;5053175;28;20209;-79
2022/09/21 04:02:58;;;;;;;10.30;7.88;;;6.50;99.90;;;;;;5060681;28;20240;-80
2022/09/21 04:05:26;;;;;;;7.00;6.30;;;6.40;99.90;;;;;;5049119;28;20206;-80
2022/09/21 04:07:55;;;;;;;7.40;6.80;;;6.40;99.90;;;;;;5040843;28;20199;-80
2022/09/21 04:10:25;;;;;;;8.70;6.38;;;6.40;99.90;;;;;;5050659;28;20206;-80
2022/09/21 04:12:56;;;;;;;10.00;7.50;;;6.40;99.90;;;;;;5058808;28;20248;-79
2022/09/21 04:15:23;;;;;;;7.63;6.90;;;6.40;99.90;;;;;;5040762;28;20210;-80
2022/09/21 04:17:51;;;;;;;9.75;7.72;;;6.40;99.90;;;;;;5040428;28;20206;-80
2022/09/21 04:20:18;;;;;;;7.70;6.90;;;6.40;99.90;;;;;;5060130;28;20213;-79
2022/09/21 04:22:46;;;;;;;9.23;7.10;;;6.30;99.90;;;;;;5060242;28;20241;-80
2022/09/21 04:25:13;;;;;;;10.95;7.25;;;6.30;99.90;;;;;;5041431;28;20608;-79
2022/09/21 04:27:42;;;;;;;9.25;7.35;;;6.30;99.90;;;;;;5046261;28;20202;-80
2022/09/21 04:30:11;;;;;;;10.07;8.45;;;6.20;99.90;;;;;;5058045;28;20571;-79
2022/09/21 04:32:38;;;;;;;9.75;8.50;;;6.30;99.90;;;;;;5051465;28;20237;-80
2022/09/21 04:35:05;;;;;;;8.32;7.47;;;6.20;99.90;;;;;;5040583;28;20203;-80
2022/09/21 04:37:32;;;;;;;9.05;7.35;;;6.20;99.90;;;;;;5045853;28;20544;-79
2022/09/21 04:39:59;;;;;;;7.50;6.80;;;6.20;99.90;;;;;;5059596;28;20209;-80
2022/09/21 04:42:26;;;;;;;9.15;8.00;;;6.20;99.90;;;;;;5069397;22;20568;-85
2022/09/21 04:45:01;;;;;;;11.35;8.40;;;6.10;99.90;;;;;;5055856;28;20214;-85
2022/09/21 04:47:29;;;;;;;9.57;8.57;;;6.10;99.90;;;;;;5056550;28;20205;-85
2022/09/21 04:49:56;;;;;;;10.15;9.15;;;6.10;99.90;;;;;;5035420;28;20209;-85
2022/09/21 04:52:23;;;;;;;15.15;10.57;;;6.10;99.90;;;;;;5051066;28;20230;-84
2022/09/21 04:54:50;;;;;;;11.05;9.18;;;6.10;99.90;;;;;;5055363;28;20294;-84
2022/09/21 04:57:16;;;;;;;11.35;10.15;;;6.10;99.90;;;;;;5056424;28;20201;-84
2022/09/21 04:59:43;;;;;;;10.82;9.68;;;6.10;99.90;;;;;;5054716;28;20202;-85
2022/09/21 05:02:11;;;;;;;11.18;10.07;;;6.10;99.90;;;;;;5055717;28;20367;-85
2022/09/21 05:04:38;;;;;;;13.63;10.18;;;6.10;99.90;;;;;;5056760;28;20201;-85
2022/09/21 05:07:05;;;;;;;10.23;9.13;;;6.10;99.90;;;;;;5055551;28;20648;-85
2022/09/21 05:12:16;;;;;;;11.85;10.82;;;6.10;99.90;;;;;;5056203;28;20279;-84
2022/09/21 05:14:43;;;;;;;10.70;9.70;;;6.10;99.90;;;;;;5054192;28;20198;-84
2022/09/21 05:17:12;;;;;;;13.52;9.88;;;6.10;99.90;;;;;;5054609;28;20209;-85
2022/09/21 05:19:39;;;;;;;12.48;8.80;;;6.10;99.90;;;;;;5055329;28;20220;-84
2022/09/21 05:22:10;;;;;;;12.02;9.77;;;6.10;99.90;;;;;;5054487;28;20222;-84
2022/09/21 05:24:37;;;;;;;9.80;8.80;;;6.10;99.90;;;;;;5055853;28;20233;-85
2022/09/21 05:27:04;;;;;;;10.23;9.25;;;6.10;99.90;;;;;;5054566;28;20661;-85
2022/09/21 05:29:32;;;;;;;10.50;8.68;;;6.10;99.90;;;;;;5055545;28;20206;-85
2022/09/21 05:32:06;;;;;;;11.63;10.52;;;6.20;99.90;;;;;;5054356;28;20233;-85
2022/09/21 05:34:47;;;;;;;13.05;9.40;;;6.20;99.90;;;;;;5056040;28;20224;-85
2022/09/21 05:37:36;;;;;;;11.48;9.63;;;6.20;99.90;;;;;;5055351;28;20233;-83
2022/09/21 05:40:05;;;;;;;12.13;10.82;;;6.20;99.90;;;;;;5054242;28;20210;-85
2022/09/21 05:42:33;;;;;;;12.63;10.35;;;6.20;99.90;;;;;;5050587;28;20225;-84
2022/09/21 05:47:53;;;;;;;10.85;9.73;;;6.20;99.90;;;;;;5051323;28;20298;-85
2022/09/21 05:50:36;;;;;;;10.48;9.48;;;6.20;99.90;;;;;;5058622;28;20213;-85
2022/09/21 05:53:22;;;;;;;13.30;11.30;;;6.30;99.90;;;;;;5054180;28;20235;-85
2022/09/21 05:55:56;;;;;;;9.95;8.88;;;6.30;99.90;;;;;;5054398;28;20201;-84
2022/09/21 05:58:32;;;;;;;13.02;10.80;;;6.40;99.90;;;;;;5055129;28;20288;-84
2022/09/21 06:01:12;;;;;;;13.00;11.30;;;6.40;99.90;;;;;;5056092;28;20206;-85
2022/09/21 06:03:40;;;;;;;11.68;10.57;;;6.40;99.90;;;;;;5055037;28;20205;-84
2022/09/21 06:06:09;;;;;;;14.70;12.13;;;6.40;99.90;;;;;;5054030;28;20202;-85
2022/09/21 06:08:36;;;;;;;12.60;11.23;;;6.50;99.90;;;;;;5054538;28;20190;-85
2022/09/21 06:11:03;;;;;;;10.48;9.27;;;6.50;99.90;;;;;;5054003;28;20312;-84
2022/09/21 06:13:29;;;;;;;13.85;10.10;;;6.50;99.90;;;;;;5055557;28;20225;-84
2022/09/21 06:15:57;;;;;;;12.95;11.73;;;6.60;99.90;;;;;;5054475;28;20210;-84
2022/09/21 06:18:24;;;;;;;13.68;11.30;;;6.70;99.90;;;;;;5055208;28;20209;-83
2022/09/21 06:20:50;;;;;;;15.02;12.38;;;6.80;99.90;;;;;;5041200;28;20210;-84
2022/09/21 06:23:20;;;;;;;13.55;12.25;;;6.80;99.90;;;;;;5047381;28;20207;-84
2022/09/21 06:25:51;;;;;;;12.70;11.27;;;6.90;99.90;;;;;;5042909;28;20260;-84
2022/09/21 06:28:18;;;;;;;15.75;11.30;;;7.00;99.90;;;;;;5045397;28;20205;-84
2022/09/21 06:30:50;;;;;;;16.90;12.88;;;7.10;99.90;;;;;;5045641;28;20200;-84
2022/09/21 06:33:20;;;;;;;13.90;12.50;;;7.10;99.90;;;;;;5047166;28;20253;-85
2022/09/21 06:35:52;;;;;;;13.77;11.82;;;7.20;99.90;;;;;;5047986;28;20193;-85
2022/09/21 06:38:22;;;;;;;13.05;10.65;;;7.30;99.90;;;;;;5049602;28;20580;-85
2022/09/21 06:40:52;;;;;;;14.15;12.10;;;7.40;99.90;;;;;;5047386;28;20678;-84
2022/09/21 06:43:19;;;;;;;13.05;11.90;;;7.50;99.90;;;;;;5049521;28;20204;-84
2022/09/21 06:45:54;;;;;;;15.80;10.85;;;7.50;99.90;;;;;;5039001;28;20206;-85
2022/09/21 06:48:21;;;;;;;16.42;12.40;;;7.60;99.90;;;;;;5040743;28;20552;-85
2022/09/21 06:50:48;;;;;;;12.23;11.02;;;7.70;99.90;;;;;;5047248;28;20708;-85
2022/09/21 06:53:40;;;;;;;16.08;13.30;;;7.80;99.90;;;;;;5059981;28;20234;-87
2022/09/21 06:56:10;;;;;;;20.85;12.90;;;7.80;99.90;;;;;;5060458;28;20221;-85
2022/09/21 06:58:37;;;;;;;12.95;11.65;;;7.90;99.90;;;;;;5060621;28;20209;-83
2022/09/21 07:01:06;;;;;;;13.13;11.88;;;8.00;99.90;;;;;;5061099;28;20237;-84
2022/09/21 07:03:33;;;;;;;16.38;12.18;;;8.10;99.90;;;;;;5060134;28;20236;-83
2022/09/21 07:05:59;;;;;;;13.65;12.25;;;8.30;99.90;;;;;;5059382;28;20638;-84
2022/09/21 07:08:26;;;;;;;13.07;11.38;;;8.30;99.90;;;;;;5059783;28;20213;-84
2022/09/21 07:10:57;;;;;;;13.85;12.55;;;8.40;99.90;;;;;;5059331;28;20673;-86
2022/09/21 07:13:45;;;;;;;14.93;11.18;;;8.50;99.90;;;;;;5056022;28;20727;-83
2022/09/21 07:16:12;;;;;;;15.52;10.90;;;8.60;99.90;;;;;;5058861;28;20202;-84
2022/09/21 07:18:40;;;;;;;15.20;11.23;;;8.70;99.90;;;;;;5058947;28;20208;-84
2022/09/21 07:21:08;;;;;;;11.32;9.95;;;8.70;99.90;;;;;;5059208;28;20245;-84
2022/09/21 07:23:36;;;;;;;16.23;11.13;;;8.70;99.90;;;;;;5077354;28;20203;-83
2022/09/21 07:26:04;;;;;;;12.68;11.27;;;8.80;99.90;;;;;;5078446;28;20209;-83
2022/09/21 07:28:31;;;;;;;10.57;9.52;;;8.90;99.90;;;;;;5078593;28;20194;-84
2022/09/21 07:30:59;;;;;;;11.68;10.48;;;9.00;99.90;;;;;;5063275;28;20667;-84
2022/09/21 07:33:26;;;;;;;12.98;10.43;;;9.10;99.90;;;;;;5063960;28;20225;-84
2022/09/21 07:35:55;;;;;;;10.63;9.35;;;9.20;99.90;;;;;;5062098;28;20205;-84
2022/09/21 07:38:22;;;;;;;11.45;9.32;;;9.20;99.90;;;;;;5067304;28;20746;-84
2022/09/21 07:40:49;;;;;;;9.65;7.90;;;9.30;99.90;;;;;;5070255;28;20216;-84
2022/09/21 07:43:16;;;;;;;8.38;7.57;;;9.40;99.90;;;;;;5076664;28;20186;-84
2022/09/21 07:45:43;;;;;;;7.55;6.82;;;9.50;99.90;;;;;;5071226;28;20301;-84
2022/09/21 07:48:11;;;;;;;8.85;7.55;;;9.60;99.90;;;;;;5077788;28;20218;-83
2022/09/21 07:50:38;;;;;;;6.60;5.97;;;9.60;99.90;;;;;;5079524;28;20187;-83
2022/09/21 07:53:04;;;;;;;8.00;7.22;;;9.70;99.90;;;;;;5079380;28;20238;-83
2022/09/21 07:55:31;;;;;;;8.27;7.25;;;9.90;99.90;;;;;;5079680;28;20192;-83
2022/09/21 08:00:43;;;;;;;6.37;5.70;;;10.10;99.90;;;;;;5079693;28;20444;-83
2022/09/21 08:03:11;;;;;;;7.32;6.63;;;10.20;99.90;;;;;;5064606;28;20438;-84
2022/09/21 08:05:38;;;;;;;10.50;6.43;;;10.30;99.90;;;;;;5077033;28;20192;-83
2022/09/21 08:08:04;;;;;;;8.63;5.40;;;10.40;99.90;;;;;;5079184;28;20464;-83
2022/09/21 08:10:31;;;;;;;6.00;5.45;;;10.50;99.90;;;;;;5079151;28;20193;-84
2022/09/21 08:12:58;;;;;;;6.27;5.40;;;10.60;99.90;;;;;;5079047;28;20256;-84
2022/09/21 08:15:26;;;;;;;5.60;5.10;;;10.70;99.90;;;;;;5077963;28;20443;-84
2022/09/21 08:17:52;;;;;;;5.83;4.27;;;10.70;99.90;;;;;;5065296;28;20458;-84
2022/09/21 08:20:21;;;;;;;3.90;3.60;;;10.90;99.90;;;;;;5076742;28;20462;-84
2022/09/21 08:22:48;;;;;;;4.90;3.13;;;11.00;99.90;;;;;;5079351;28;20462;-83
2022/09/21 08:25:14;;;;;;;3.30;3.00;;;11.10;99.90;;;;;;5079069;28;20450;-84
2022/09/21 08:27:41;;;;;;;3.53;2.50;;;11.20;99.90;;;;;;5078834;28;20439;-83
2022/09/21 08:30:12;;;;;;;3.73;3.20;;;11.30;99.90;;;;;;5078174;28;20451;-84
2022/09/21 08:32:41;;;;;;;3.83;3.53;;;11.30;99.90;;;;;;5077355;28;20479;-84
2022/09/21 08:35:09;;;;;;;6.50;3.60;;;11.40;99.90;;;;;;5079237;28;20434;-83
2022/09/21 08:37:37;;;;;;;3.53;2.93;;;11.50;99.90;;;;;;5078760;28;20456;-83
2022/09/21 08:40:05;;;;;;;3.93;3.50;;;11.60;99.90;;;;;;5079113;28;20451;-84
2022/09/21 08:42:41;;;;;;;3.43;3.13;;;11.70;99.90;;;;;;5077495;28;20471;-83
2022/09/21 08:45:14;;;;;;;3.00;2.23;;;11.90;99.90;;;;;;5078439;28;20419;-84
2022/09/21 08:47:44;;;;;;;2.73;2.53;;;12.00;99.90;;;;;;5078767;28;20453;-83
2022/09/21 08:50:23;;;;;;;2.80;2.60;;;12.10;99.90;;;;;;5079139;28;20428;-84
2022/09/21 08:52:57;;;;;;;2.70;1.90;;;12.20;99.90;;;;;;5078407;28;20487;-85
2022/09/21 08:55:24;;;;;;;2.53;2.33;;;12.30;99.90;;;;;;5062826;28;20448;-85
2022/09/21 08:57:51;;;;;;;3.40;3.10;;;12.40;99.90;;;;;;5058380;28;20453;-85
2022/09/21 09:00:19;;;;;;;2.33;1.83;;;12.50;99.90;;;;;;5058673;28;20479;-83
2022/09/21 09:03:13;;;;;;;2.23;2.00;;;12.70;99.90;;;;;;5057944;28;20475;-84
2022/09/21 09:05:49;;;;;;;2.20;1.97;;;12.80;99.90;;;;;;5057152;28;20452;-85
2022/09/21 09:08:54;;;;;;;1.50;1.40;;;12.90;99.90;;;;;;5055892;28;20447;-84
2022/09/21 09:11:52;;;;;;;2.37;2.17;;;13.00;99.90;;;;;;5056451;28;20538;-84
2022/09/21 09:14:36;;;;;;;2.10;2.00;;;13.10;99.90;;;;;;5053348;28;20491;-84
2022/09/21 09:17:19;;;;;;;2.30;1.90;;;13.20;99.90;;;;;;5055935;28;20802;-84
2022/09/21 09:19:51;;;;;;;2.00;1.90;;;13.40;99.90;;;;;;5054521;28;20432;-85
2022/09/21 09:22:23;;;;;;;2.53;1.57;;;13.50;99.90;;;;;;5055189;28;20491;-85
2022/09/21 09:24:53;;;;;;;1.40;1.30;;;13.70;99.90;;;;;;5054977;28;20448;-84
2022/09/21 09:27:24;;;;;;;1.80;1.70;;;13.80;99.90;;;;;;5054557;28;20444;-84
2022/09/21 09:29:58;;;;;;;3.40;2.17;;;14.00;99.90;;;;;;5053574;28;20455;-85
2022/09/21 09:32:33;;;;;;;1.63;1.43;;;14.10;99.90;;;;;;5055474;28;20573;-84
2022/09/21 09:35:05;;;;;;;2.33;2.20;;;14.10;99.90;;;;;;5055574;28;20816;-84
2022/09/21 09:37:40;;;;;;;3.20;2.17;;;14.20;99.90;;;;;;5054716;28;20834;-85
2022/09/21 09:40:11;;;;;;;1.50;1.33;;;14.20;99.90;;;;;;5068968;28;20444;-84
2022/09/21 09:42:51;;;;;;;1.60;1.50;;;14.30;99.90;;;;;;5075778;28;20464;-85
2022/09/21 09:45:42;;;;;;;1.37;1.27;;;14.50;99.90;;;;;;5053980;28;20445;-85
2022/09/21 09:48:31;;;;;;;1.83;1.47;;;14.70;99.90;;;;;;5052635;28;20451;-84
2022/09/21 09:50:58;;;;;;;2.70;1.40;;;14.70;99.90;;;;;;5052721;28;20476;-85
2022/09/21 09:53:26;;;;;;;1.60;1.20;;;14.80;99.90;;;;;;5053369;28;20526;-85
2022/09/21 09:55:56;;;;;;;2.43;0.97;;;14.90;99.50;;;;;;5053158;28;20453;-85
2022/09/21 09:58:28;;;;;;;1.50;1.37;;;15.10;99.70;;;;;;5053659;28;20454;-85
2022/09/21 10:00:55;;;;;;;1.43;1.20;;;15.10;99.70;;;;;;5052764;28;20798;-85
2022/09/21 10:03:23;;;;;;;3.60;1.83;;;15.30;99.30;;;;;;5052983;28;20454;-85
2022/09/21 10:05:51;;;;;;;1.67;1.27;;;15.40;99.30;;;;;;5053068;28;20820;-85
2022/09/21 10:08:30;;;;;;;1.77;1.30;;;15.60;98.90;;;;;;5051845;28;20969;-84
2022/09/21 10:10:58;;;;;;;1.53;1.43;;;15.80;98.70;;;;;;5052666;28;20444;-85
2022/09/21 10:13:28;;;;;;;2.70;1.40;;;16.00;97.30;;;;;;5052567;28;20494;-85
2022/09/21 10:15:58;;;;;;;1.20;1.20;;;16.00;96.30;;;;;;5052489;28;20452;-85
2022/09/21 10:18:35;;;;;;;1.50;1.40;;;16.20;96.70;;;;;;5052591;28;20920;-85
2022/09/21 10:21:06;;;;;;;1.70;1.40;;;16.40;97.20;;;;;;5052186;28;20484;-84
2022/09/21 10:23:34;;;;;;;4.23;1.60;;;16.60;96.40;;;;;;5052472;28;20458;-85
2022/09/21 10:26:04;;;;;;;1.53;1.37;;;16.90;97.20;;;;;;5052370;28;20458;-85
2022/09/21 10:28:31;;;;;;;2.23;0.90;;;17.20;95.30;;;;;;5052025;28;20470;-85
2022/09/21 10:31:16;;;;;;;1.37;1.27;;;17.50;94.50;;;;;;5052216;28;20455;-85
2022/09/21 10:33:53;;;;;;;1.50;1.30;;;17.80;94.20;;;;;;5053626;28;20557;-86
2022/09/21 10:36:32;;;;;;;1.70;1.50;;;18.10;93.80;;;;;;5052583;28;20446;-86
2022/09/21 10:39:18;;;;;;;1.50;1.40;;;18.40;94.10;;;;;;5052438;28;20443;-86
2022/09/21 10:41:51;;;;;;;1.50;1.40;;;18.70;93.00;;;;;;5109013;22;20499;-85
2022/09/21 10:44:20;;;;;;;4.07;1.80;;;18.90;92.90;;;;;;5062303;28;20459;-85
2022/09/21 10:46:48;;;;;;;3.10;2.10;;;19.00;92.40;;;;;;5062576;28;20452;-85
2022/09/21 10:49:20;;;;;;;2.10;1.70;;;19.10;92.00;;;;;;5063504;28;20455;-85
2022/09/21 10:51:49;;;;;;;2.27;1.30;;;19.00;91.50;;;;;;5062289;28;20476;-85
2022/09/21 10:54:21;;;;;;;2.00;1.80;;;18.90;91.40;;;;;;5062625;28;20495;-86
2022/09/21 10:56:55;;;;;;;2.23;1.60;;;18.90;91.60;;;;;;5063210;28;20459;-85
2022/09/21 10:59:25;;;;;;;1.70;1.60;;;18.80;91.70;;;;;;5061437;28;20454;-85
2022/09/21 11:01:54;;;;;;;1.90;1.50;;;18.70;91.20;;;;;;5062682;28;20825;-85
2022/09/21 11:04:29;;;;;;;1.20;1.20;;;18.60;91.30;;;;;;5061895;28;20463;-85
2022/09/21 11:07:01;;;;;;;1.20;1.10;;;18.70;92.20;;;;;;5062508;28;20446;-85
2022/09/21 11:09:34;;;;;;;1.30;1.23;;;19.10;90.20;;;;;;5060905;28;20474;-85
2022/09/21 11:12:10;;;;;;;1.57;1.40;;;19.70;90.80;;;;;;5062101;28;20478;-83
2022/09/21 11:14:46;;;;;;;1.80;1.40;;;20.60;89.10;;;;;;5070425;28;20549;-86
2022/09/21 11:17:17;;;;;;;1.53;1.10;;;21.50;83.50;;;;;;5064345;28;20461;-86
2022/09/21 11:19:51;;;;;;;1.20;1.10;;;22.00;82.30;;;;;;5064381;28;20459;-85
2022/09/21 11:22:24;;;;;;;1.10;1.00;;;22.00;78.30;;;;;;5067455;28;20466;-85
2022/09/21 11:24:57;;;;;;;1.80;1.20;;;21.90;77.90;;;;;;5068255;28;20944;-85
2022/09/21 11:27:31;;;;;;;1.47;1.10;;;21.80;78.60;;;;;;5067561;28;20471;-85
2022/09/21 11:30:02;;;;;;;2.10;1.50;;;22.10;77.60;;;;;;5068364;28;20545;-86
2022/09/21 11:33:01;;;;;;;1.10;1.00;;;22.60;77.80;;;;;;5068169;28;20464;-86
2022/09/21 11:35:46;;;;;;;1.50;1.40;;;23.40;72.80;;;;;;5067612;28;20555;-86
2022/09/21 11:38:22;;;;;;;0.80;0.80;;;24.00;68.90;;;;;;5067992;28;20448;-86
2022/09/21 11:41:08;;;;;;;3.13;1.10;;;24.50;69.50;;;;;;5067676;28;20454;-85
2022/09/21 11:43:55;;;;;;;1.10;1.00;;;25.40;66.00;;;;;;5067088;28;20462;-85
2022/09/21 11:46:29;;;;;;;1.00;0.90;;;26.20;62.80;;;;;;5066403;28;20455;-86
2022/09/21 11:49:10;;;;;;;1.47;0.90;;;26.80;60.10;;;;;;5065113;28;20451;-84
2022/09/21 11:51:52;;;;;;;0.87;0.87;;;27.60;57.10;;;;;;5065679;28;20534;-84
2022/09/21 11:54:43;;;;;;;2.20;0.67;;;28.00;56.30;;;;;;5064032;28;20615;-85
2022/09/21 11:57:18;;;;;;;1.00;0.90;;;28.30;54.40;;;;;;5064395;28;20455;-85
2022/09/21 12:00:02;;;;;;;1.10;1.00;;;28.80;53.30;;;;;;5063819;28;20486;-85
2022/09/21 12:02:50;;;;;;;2.40;1.17;;;29.30;51.80;;;;;;5062671;28;20472;-86
2022/09/21 12:05:24;;;;;;;0.77;0.77;;;29.60;50.00;;;;;;5063975;28;20448;-80
2022/09/21 12:08:20;;;;;;;1.80;0.80;;;29.30;49.60;;;;;;5065132;28;20453;-82
2022/09/21 12:10:56;;;;;;;0.70;0.70;;;29.20;50.10;;;;;;5074621;28;20432;-81
2022/09/21 12:13:29;;;;;;;0.87;0.80;;;29.50;50.10;;;;;;5064358;28;20491;-82
2022/09/21 12:16:05;;;;;;;1.80;1.27;;;29.90;48.00;;;;;;5063417;28;20444;-81
2022/09/21 12:18:38;;;;;;;2.60;1.20;;;30.20;47.70;;;;;;5058445;28;20448;-85
2022/09/21 12:21:13;;;;;;;1.17;1.03;;;30.40;45.40;;;;;;5061574;28;20452;-86
2022/09/21 12:23:43;;;;;;;3.67;1.13;;;30.30;44.70;;;;;;5062870;28;20452;-86
2022/09/21 12:26:12;;;;;;;1.37;1.20;;;30.20;44.00;;;;;;5062850;28;20949;-85
2022/09/21 12:28:44;;;;;;;1.07;0.80;;;30.40;45.40;;;;;;5061133;28;20466;-84
2022/09/21 12:31:19;;;;;;;1.20;1.10;;;30.50;44.10;;;;;;5064225;28;20502;-86
2022/09/21 12:33:51;;;;;;;0.73;0.73;;;30.20;43.80;;;;;;5062806;28;20486;-86
2022/09/21 12:36:21;;;;;;;0.93;0.60;;;29.80;43.90;;;;;;5065883;28;20451;-85
2022/09/21 12:38:55;;;;;;;0.83;0.83;;;29.20;44.40;;;;;;5066104;28;20459;-85
2022/09/21 12:41:30;;;;;;;1.33;1.13;;;29.10;46.10;;;;;;5068034;28;20453;-85
2022/09/21 12:44:04;;;;;;;1.50;1.30;;;29.30;45.20;;;;;;5067160;28;20451;-84
2022/09/21 12:46:39;;;;;;;1.13;0.60;;;29.80;44.20;;;;;;5070254;28;20811;-85
2022/09/21 12:49:13;;;;;;;1.17;1.07;;;30.20;43.00;;;;;;5066516;28;20444;-84
2022/09/21 12:51:45;;;;;;;1.53;1.43;;;30.60;43.20;;;;;;5055562;28;20497;-85
2022/09/21 12:54:23;;;;;;;0.70;0.70;;;31.10;43.10;;;;;;5058474;28;21075;-86
2022/09/21 12:56:59;;;;;;;1.07;0.57;;;31.30;41.90;;;;;;5061178;28;20451;-83
2022/09/21 12:59:35;;;;;;;1.30;1.13;;;31.60;40.40;;;;;;5061984;28;20463;-82
2022/09/21 13:02:18;;;;;;;0.70;0.70;;;32.20;41.00;;;;;;5064468;28;20480;-83
2022/09/21 13:05:00;;;;;;;0.70;0.70;;;32.40;39.40;;;;;;5066352;28;20461;-83
2022/09/21 13:07:48;;;;;;;0.70;0.60;;;32.00;38.30;;;;;;5052748;28;20468;-81
2022/09/21 13:10:20;;;;;;;0.80;0.80;;;32.10;38.40;;;;;;5061623;28;20495;-82
2022/09/21 13:12:53;;;;;;;1.53;0.70;;;32.50;37.90;;;;;;5063284;28;20493;-83
2022/09/21 13:15:25;;;;;;;1.60;1.00;;;32.90;37.10;;;;;;5057661;28;20518;-83
2022/09/21 13:18:03;;;;;;;0.93;0.90;;;33.20;36.60;;;;;;5057348;28;20459;-83
2022/09/21 13:20:36;;;;;;;1.23;0.70;;;33.40;36.80;;;;;;5059108;28;20465;-85